createdAt,value
2019-06-10T05:55:15.625Z,4728.00
2019-06-10T05:56:15.615Z,4800.00
2019-06-10T05:57:15.597Z,4764.00
2019-06-10T05:58:15.586Z,4248.00
2019-06-10T05:59:15.573Z,4536.00
2019-06-10T06:00:15.564Z,4584.00
2019-06-10T06:01:15.569Z,3940.00
2019-06-10T06:02:15.540Z,3436.00
2019-06-10T06:03:15.530Z,3248.00
2019-06-10T06:04:15.520Z,3112.00
2019-06-10T06:05:15.508Z,2996.00
2019-06-10T06:06:15.512Z,2972.00
2019-06-10T06:07:15.486Z,3008.00
2019-06-10T06:08:15.475Z,3124.00
2019-06-10T06:09:15.463Z,3164.00
2019-06-10T06:10:15.452Z,3084.00
2019-06-10T06:11:15.440Z,2872.00
2019-06-10T06:12:15.438Z,2700.00
2019-06-10T06:13:15.418Z,2524.00
2019-06-10T06:14:15.409Z,2516.00
2019-06-10T06:15:15.400Z,2504.00
2019-06-10T06:16:15.388Z,2548.00
2019-06-10T06:17:16.780Z,2608.00
2019-06-10T06:18:15.361Z,2716.00
2019-06-10T06:19:15.351Z,2724.00
2019-06-10T06:20:15.340Z,2836.00
2019-06-10T06:21:25.695Z,3044.00
2019-06-10T06:22:16.327Z,3116.00
2019-06-10T06:23:15.306Z,3072.00
2019-06-10T06:24:15.319Z,2992.00
2019-06-10T06:25:15.782Z,2864.00
2019-06-10T06:26:16.793Z,2684.00
2019-06-10T06:27:15.272Z,2620.00
2019-06-10T06:28:16.303Z,2544.00
2019-06-10T06:29:15.241Z,2288.00
2019-06-10T06:30:18.682Z,2076.00
2019-06-10T06:31:15.221Z,2100.00
2019-06-10T06:32:15.216Z,2224.00
2019-06-10T06:33:15.198Z,2432.00
2019-06-10T06:34:15.185Z,2552.00
2019-06-10T06:35:15.179Z,2700.00
2019-06-10T06:36:15.163Z,2820.00
2019-06-10T06:37:15.160Z,2884.00
2019-06-10T06:38:15.145Z,2760.00
2019-06-10T06:39:15.129Z,2504.00
2019-06-10T06:40:15.119Z,2516.00
2019-06-10T06:41:15.110Z,2632.00
2019-06-10T06:42:15.111Z,3248.00
2019-06-10T06:43:15.086Z,3280.00
2019-06-10T06:44:15.075Z,3636.00
2019-06-10T06:45:15.064Z,3756.00
2019-06-10T06:46:15.054Z,4716.00
2019-06-10T06:47:15.052Z,3804.00
2019-06-10T06:48:15.030Z,3864.00
2019-06-10T06:49:15.018Z,3824.00
2019-06-10T06:50:15.008Z,3760.00
2019-06-10T06:51:14.996Z,3672.00
2019-06-10T06:52:14.994Z,3628.00
2019-06-10T06:53:25.513Z,3412.00
2019-06-10T06:54:15.965Z,3312.00
2019-06-10T06:55:14.949Z,3172.00
2019-06-10T06:56:14.945Z,3048.00
2019-06-10T06:57:14.941Z,3044.00
2019-06-10T06:58:14.916Z,3120.00
2019-06-10T06:59:14.906Z,3220.00
2019-06-10T07:00:38.186Z,3296.00
2019-06-10T07:01:15.881Z,3324.00
2019-06-10T07:02:14.875Z,3288.00
2019-06-10T07:03:14.875Z,3132.00
2019-06-10T07:04:14.850Z,2936.00
2019-06-10T07:05:14.840Z,2672.00
2019-06-10T07:06:14.832Z,2448.00
2019-06-10T07:07:14.819Z,2284.00
2019-06-10T07:08:14.824Z,2320.00
2019-06-10T07:09:14.793Z,2472.00
2019-06-10T07:10:14.782Z,2708.00
2019-06-10T07:11:14.769Z,2784.00
2019-06-10T07:12:14.759Z,2808.00
2019-06-10T07:13:14.755Z,3264.00
2019-06-10T07:14:14.735Z,3032.00
2019-06-10T07:15:14.724Z,3124.00
2019-06-10T07:16:14.711Z,3160.00
2019-06-10T07:17:14.700Z,3648.00
2019-06-10T07:18:14.700Z,3688.00
2019-06-10T07:19:14.678Z,4056.00
2019-06-10T07:20:14.667Z,4412.00
2019-06-10T07:21:14.658Z,4524.00
2019-06-10T07:22:16.330Z,4540.00
2019-06-10T07:23:14.653Z,4580.00
2019-06-10T07:24:14.623Z,4456.00
2019-06-10T07:25:14.615Z,5068.00
2019-06-10T07:26:14.603Z,4156.00
2019-06-10T07:27:14.588Z,4236.00
2019-06-10T07:28:14.587Z,4424.00
2019-06-10T07:29:14.565Z,4064.00
2019-06-10T07:30:15.107Z,3668.00
2019-06-10T07:31:23.131Z,3912.00
2019-06-10T07:32:15.533Z,4344.00
2019-06-10T07:33:14.529Z,4068.00
2019-06-10T07:34:14.511Z,3804.00
2019-06-10T07:35:14.498Z,3732.00
2019-06-10T07:36:14.513Z,3308.00
2019-06-10T07:37:14.478Z,3216.00
2019-06-10T07:38:14.481Z,3224.00
2019-06-10T07:39:14.459Z,3384.00
2019-06-10T07:40:14.443Z,3480.00
2019-06-10T07:41:14.432Z,3784.00
2019-06-10T07:42:14.423Z,4156.00
2019-06-10T07:43:14.420Z,4548.00
2019-06-10T07:44:14.400Z,4784.00
2019-06-10T07:45:14.391Z,4944.00
2019-06-10T07:46:14.380Z,5116.00
2019-06-10T07:47:14.370Z,4964.00
2019-06-10T07:48:14.364Z,4824.00
2019-06-10T07:49:14.347Z,4720.00
2019-06-10T07:50:14.335Z,4748.00
2019-06-10T07:51:14.323Z,4864.00
2019-06-10T07:52:19.395Z,5088.00
2019-06-10T07:53:15.314Z,5400.00
2019-06-10T07:54:14.289Z,5540.00
2019-06-10T07:55:14.278Z,5860.00
2019-06-10T07:56:14.269Z,6148.00
2019-06-10T07:57:14.256Z,6444.00
2019-06-10T07:58:14.271Z,6584.00
2019-06-10T07:59:14.233Z,7000.00
2019-06-10T08:00:14.222Z,7656.00
2019-06-10T08:01:14.212Z,7512.00
2019-06-10T08:02:14.205Z,7612.00
2019-06-10T08:03:14.189Z,7544.00
2019-06-10T08:04:14.192Z,7520.00
2019-06-10T08:05:14.169Z,7328.00
2019-06-10T08:06:14.157Z,7188.00
2019-06-10T08:07:14.146Z,6848.00
2019-06-10T08:08:14.136Z,6412.00
2019-06-10T08:09:14.133Z,6524.00
2019-06-10T08:10:14.117Z,6872.00
2019-06-10T08:11:14.282Z,6768.00
2019-06-10T08:12:14.093Z,6748.00
2019-06-10T08:13:14.080Z,6300.00
2019-06-10T08:14:14.078Z,7052.00
2019-06-10T08:15:14.059Z,6872.00
2019-06-10T08:16:14.047Z,6200.00
2019-06-10T08:17:14.039Z,4532.00
2019-06-10T08:18:14.025Z,3516.00
2019-06-10T08:19:30.323Z,3604.00
2019-06-10T08:20:15.004Z,4512.00
2019-06-10T08:21:13.991Z,5028.00
2019-06-10T08:22:29.962Z,5424.00
2019-06-10T08:23:14.969Z,5676.00
2019-06-10T08:24:13.968Z,5580.00
2019-06-10T08:25:13.950Z,5364.00
2019-06-10T08:26:13.938Z,5256.00
2019-06-10T08:27:13.925Z,5340.00
2019-06-10T08:28:13.916Z,5588.00
2019-06-10T08:29:13.912Z,5952.00
2019-06-10T08:30:22.130Z,6048.00
2019-06-10T08:31:14.881Z,5848.00
2019-06-10T08:32:13.868Z,5700.00
2019-06-10T08:33:13.903Z,5168.00
2019-06-10T08:34:13.859Z,4984.00
2019-06-10T08:35:13.839Z,4736.00
2019-06-10T08:36:13.867Z,4692.00
2019-06-10T08:37:13.832Z,4968.00
2019-06-10T08:38:13.803Z,5088.00
2019-06-10T08:39:15.957Z,5100.00
2019-06-10T08:40:13.783Z,5564.00
2019-06-10T08:41:13.771Z,5208.00
2019-06-10T08:42:13.758Z,6404.00
2019-06-10T08:43:13.749Z,6280.00
2019-06-10T08:44:13.745Z,6548.00
2019-06-10T08:45:13.727Z,6944.00
2019-06-10T08:46:13.715Z,6908.00
2019-06-10T08:47:13.705Z,6720.00
2019-06-10T08:48:13.694Z,7092.00
2019-06-10T08:49:13.691Z,7132.00
2019-06-10T08:50:13.670Z,7272.00
2019-06-10T08:51:13.662Z,7948.00
2019-06-10T08:52:13.647Z,7824.00
2019-06-10T08:53:17.875Z,8364.00
2019-06-10T08:54:13.639Z,8364.00
2019-06-10T08:55:13.657Z,9024.00
2019-06-10T08:56:13.604Z,9416.00
2019-06-10T08:57:13.593Z,9400.00
2019-06-10T08:58:13.581Z,9148.00
2019-06-10T08:59:13.588Z,9108.00
2019-06-10T09:00:15.523Z,8816.00
2019-06-10T09:01:13.583Z,8744.00
2019-06-10T09:02:13.538Z,8952.00
2019-06-10T09:03:13.530Z,9140.00
2019-06-10T09:04:13.521Z,9048.00
2019-06-10T09:05:13.518Z,7556.00
2019-06-10T09:06:13.542Z,8776.00
2019-06-10T09:07:13.488Z,8608.00
2019-06-10T09:08:13.474Z,8964.00
2019-06-10T09:09:13.461Z,8764.00
2019-06-10T09:10:13.575Z,8684.00
2019-06-10T09:11:13.440Z,8196.00
2019-06-10T09:12:28.740Z,8928.00
2019-06-10T09:13:14.417Z,9052.00
2019-06-10T09:14:13.412Z,8980.00
2019-06-10T09:15:13.407Z,9556.00
2019-06-10T09:16:19.099Z,10020.00
2019-06-10T09:17:14.373Z,10500.00
2019-06-10T09:18:14.945Z,10788.00
2019-06-10T09:19:13.352Z,10832.00
2019-06-10T09:20:13.351Z,11164.00
2019-06-10T09:21:13.332Z,12124.00
2019-06-10T09:22:13.323Z,12164.00
2019-06-10T09:23:21.899Z,13568.00
2019-06-10T09:24:14.297Z,30080.00
2019-06-10T09:25:13.328Z,44000.00
2019-06-10T09:26:13.280Z,57184.00
2019-06-10T09:27:13.528Z,57184.00
2019-06-10T09:28:13.258Z,69120.00
2019-06-10T09:29:13.548Z,65120.00
2019-06-10T09:30:13.593Z,45920.00
2019-06-10T09:31:14.002Z,17728.00
2019-06-10T09:32:13.212Z,13044.00
2019-06-10T09:33:13.207Z,11852.00
2019-06-10T09:34:13.196Z,11700.00
2019-06-10T09:35:13.190Z,12796.00
2019-06-10T09:36:13.170Z,11644.00
2019-06-10T09:37:13.158Z,13156.00
2019-06-10T09:38:14.195Z,22528.00
2019-06-10T09:39:13.210Z,56768.00
2019-06-10T09:40:13.138Z,65248.00
2019-06-10T09:41:14.216Z,64000.00
2019-06-10T09:42:14.461Z,67136.00
2019-06-10T09:43:13.094Z,68736.00
2019-06-10T09:44:13.188Z,50464.00
2019-06-10T09:45:13.093Z,57408.00
2019-06-10T09:46:13.072Z,35776.00
2019-06-10T09:47:14.559Z,60704.00
2019-06-10T09:48:13.378Z,78784.00
2019-06-10T09:49:13.032Z,81600.00
2019-06-10T09:50:13.034Z,77952.00
2019-06-10T09:51:13.015Z,75360.00
2019-06-10T09:52:13.501Z,64448.00
2019-06-10T09:53:26.661Z,55840.00
2019-06-10T09:54:13.978Z,42592.00
2019-06-10T09:55:12.986Z,42432.00
2019-06-10T09:56:12.971Z,48960.00
2019-06-10T09:57:12.951Z,60160.00
2019-06-10T09:58:12.938Z,55904.00
2019-06-10T09:59:12.929Z,42944.00
2019-06-10T10:00:12.920Z,52032.00
2019-06-10T10:01:13.499Z,42496.00
2019-06-10T10:02:12.895Z,58144.00
2019-06-10T10:03:12.888Z,47648.00
2019-06-10T10:04:12.876Z,55872.00
2019-06-10T10:05:12.865Z,56800.00
2019-06-10T10:06:15.846Z,60224.00
2019-06-10T10:07:12.843Z,51232.00
2019-06-10T10:08:12.903Z,51136.00
2019-06-10T10:09:12.824Z,52960.00
2019-06-10T10:10:13.001Z,57984.00
2019-06-10T10:11:13.125Z,55680.00
2019-06-10T10:12:13.291Z,29056.00
2019-06-10T10:13:13.189Z,44128.00
2019-06-10T10:14:16.058Z,44544.00
2019-06-10T10:15:26.774Z,59712.00
2019-06-10T10:16:13.760Z,45536.00
2019-06-10T10:17:12.936Z,50528.00
2019-06-10T10:18:13.362Z,68416.00
2019-06-10T10:19:13.219Z,73792.00
2019-06-10T10:20:12.715Z,74400.00
2019-06-10T10:21:13.191Z,77152.00
2019-06-10T10:22:14.040Z,70912.00
2019-06-10T10:23:13.765Z,73344.00
2019-06-10T10:24:15.125Z,73728.00
2019-06-10T10:25:14.401Z,68768.00
2019-06-10T10:26:13.286Z,80928.00
2019-06-10T10:27:13.468Z,86880.00
2019-06-10T10:28:13.439Z,85376.00
2019-06-10T10:29:13.163Z,78560.00
2019-06-10T10:30:13.504Z,81440.00
2019-06-10T10:31:13.083Z,89088.00
2019-06-10T10:32:13.178Z,84448.00
2019-06-10T10:33:12.941Z,81760.00
2019-06-10T10:34:13.501Z,80512.00
2019-06-10T10:35:12.743Z,79840.00
2019-06-10T10:36:14.025Z,78976.00
2019-06-10T10:37:12.553Z,81760.00
2019-06-10T10:38:14.330Z,80640.00
2019-06-10T10:39:13.917Z,73280.00
2019-06-10T10:40:12.510Z,76352.00
2019-06-10T10:41:13.485Z,76128.00
2019-06-10T10:42:12.701Z,77024.00
2019-06-10T10:43:25.355Z,77120.00
2019-06-10T10:44:14.664Z,62656.00
2019-06-10T10:45:13.299Z,64608.00
2019-06-10T10:46:13.805Z,56768.00
2019-06-10T10:47:12.525Z,48640.00
2019-06-10T10:48:14.091Z,42560.00
2019-06-10T10:49:13.223Z,43360.00
2019-06-10T10:50:13.993Z,40960.00
2019-06-10T10:51:13.296Z,22112.00
2019-06-10T10:52:12.979Z,15904.00
2019-06-10T10:53:12.887Z,14388.00
2019-06-10T10:54:25.556Z,13844.00
2019-06-10T10:55:13.362Z,13656.00
2019-06-10T10:56:13.033Z,14672.00
2019-06-10T10:57:13.172Z,19968.00
2019-06-10T10:58:12.866Z,30944.00
2019-06-10T10:59:12.815Z,34528.00
2019-06-10T11:00:12.990Z,30880.00
2019-06-10T11:01:14.983Z,30048.00
2019-06-10T11:02:12.717Z,25376.00
2019-06-10T11:03:13.390Z,23648.00
2019-06-10T11:04:13.299Z,26656.00
2019-06-10T11:05:12.883Z,23296.00
2019-06-10T11:06:13.084Z,25600.00
2019-06-10T11:07:12.955Z,30880.00
2019-06-10T11:08:13.575Z,36800.00
2019-06-10T11:09:12.975Z,35488.00
2019-06-10T11:10:12.781Z,20704.00
2019-06-10T11:11:13.396Z,16064.00
2019-06-10T11:12:12.200Z,13792.00
2019-06-10T11:13:12.180Z,26880.00
2019-06-10T11:14:15.023Z,24320.00
2019-06-10T11:15:13.690Z,21152.00
2019-06-10T11:16:12.146Z,15936.00
2019-06-10T11:17:12.183Z,14592.00
2019-06-10T11:18:12.777Z,13864.00
2019-06-10T11:19:13.050Z,12356.00
2019-06-10T11:20:13.598Z,12848.00
2019-06-10T11:21:13.383Z,12728.00
2019-06-10T11:22:12.626Z,12500.00
2019-06-10T11:23:12.487Z,12692.00
2019-06-10T11:24:14.521Z,12376.00
2019-06-10T11:25:13.179Z,12468.00
2019-06-10T11:26:12.999Z,12064.00
2019-06-10T11:27:12.790Z,11044.00
2019-06-10T11:28:12.024Z,9504.00
2019-06-10T11:29:12.011Z,9092.00
2019-06-10T11:30:12.447Z,9784.00
2019-06-10T11:31:13.790Z,10632.00
2019-06-10T11:32:11.987Z,9580.00
2019-06-10T11:33:11.981Z,9420.00
2019-06-10T11:34:11.962Z,11004.00
2019-06-10T11:35:12.229Z,12192.00
2019-06-10T11:36:13.569Z,11936.00
2019-06-10T11:37:12.675Z,11504.00
2019-06-10T11:38:12.845Z,11140.00
2019-06-10T11:39:13.337Z,11228.00
2019-06-10T11:40:13.591Z,11312.00
2019-06-10T11:41:13.596Z,11032.00
2019-06-10T11:42:13.220Z,10996.00
2019-06-10T11:43:13.090Z,10832.00
2019-06-10T11:44:11.852Z,10852.00
2019-06-10T11:45:11.859Z,10188.00
2019-06-10T11:46:13.785Z,9240.00
2019-06-10T11:47:13.155Z,7504.00
2019-06-10T11:48:12.953Z,5900.00
2019-06-10T11:49:12.587Z,5176.00
2019-06-10T11:50:12.184Z,4616.00
2019-06-10T11:51:12.979Z,4616.00
2019-06-10T11:52:12.589Z,4864.00
2019-06-10T11:53:12.809Z,4744.00
2019-06-10T11:54:12.882Z,4812.00
2019-06-10T11:55:18.737Z,4744.00
2019-06-10T11:56:13.178Z,4952.00
2019-06-10T11:57:12.491Z,5160.00
2019-06-10T11:58:11.704Z,5476.00
2019-06-10T11:59:13.385Z,5008.00
2019-06-10T12:00:16.586Z,3948.00
2019-06-10T12:01:13.434Z,3348.00
2019-06-10T12:02:13.260Z,2856.00
2019-06-10T12:03:13.133Z,2756.00
2019-06-10T12:04:12.900Z,2740.00
2019-06-10T12:05:13.045Z,2880.00
2019-06-10T12:06:13.584Z,3040.00
2019-06-10T12:07:12.919Z,3368.00
2019-06-10T12:08:13.113Z,3796.00
2019-06-10T12:09:13.769Z,2972.00
2019-06-10T12:10:12.798Z,2636.00
2019-06-10T12:11:12.623Z,2512.00
2019-06-10T12:12:12.994Z,2836.00
2019-06-10T12:13:13.367Z,3132.00
2019-06-10T12:14:12.935Z,3160.00
2019-06-10T12:15:12.118Z,3528.00
2019-06-10T12:17:11.310Z,3684.00
2019-06-10T12:17:27.589Z,4172.00
2019-06-10T12:18:13.154Z,4672.00
2019-06-10T12:19:12.742Z,5600.00
2019-06-10T12:20:13.241Z,6016.00
2019-06-10T12:21:13.240Z,6724.00
2019-06-10T12:22:13.387Z,7816.00
2019-06-10T12:23:12.713Z,8324.00
2019-06-10T12:24:12.728Z,8492.00
2019-06-10T12:25:31.457Z,9352.00
2019-06-10T12:26:12.403Z,9352.00
2019-06-10T12:27:13.116Z,9024.00
2019-06-10T12:28:12.865Z,8788.00
2019-06-10T12:29:12.380Z,8664.00
2019-06-10T12:30:13.246Z,8784.00
2019-06-10T12:31:13.434Z,8500.00
2019-06-10T12:32:13.548Z,8336.00
2019-06-10T12:33:19.947Z,8364.00
2019-06-10T12:34:12.613Z,8080.00
2019-06-10T12:35:13.687Z,7392.00
2019-06-10T12:36:12.852Z,7080.00
2019-06-10T12:37:15.777Z,6944.00
2019-06-10T12:38:13.846Z,7028.00
2019-06-10T12:39:14.880Z,7208.00
2019-06-10T12:40:12.850Z,7108.00
2019-06-10T12:41:14.074Z,7016.00
2019-06-10T12:42:14.147Z,6876.00
2019-06-10T12:43:12.643Z,6572.00
2019-06-10T12:44:12.331Z,6020.00
2019-06-10T12:45:12.812Z,5532.00
2019-06-10T12:46:12.710Z,5212.00
2019-06-10T12:47:11.185Z,4976.00
2019-06-10T12:48:13.173Z,4944.00
2019-06-10T12:49:13.088Z,4968.00
2019-06-10T12:50:12.176Z,4848.00
2019-06-10T12:51:13.482Z,4832.00
2019-06-10T12:52:12.581Z,4868.00
2019-06-10T12:53:12.535Z,4760.00
2019-06-10T12:54:13.086Z,4728.00
2019-06-10T12:55:12.525Z,4596.00
2019-06-10T12:56:14.185Z,4480.00
2019-06-10T12:57:12.361Z,4592.00
2019-06-10T12:58:11.082Z,4636.00
2019-06-10T12:59:13.263Z,4788.00
2019-06-10T13:00:20.676Z,4880.00
2019-06-10T13:01:12.050Z,4992.00
2019-06-10T13:02:21.934Z,4444.00
2019-06-10T13:03:12.877Z,4172.00
2019-06-10T13:04:13.559Z,4128.00
2019-06-10T13:05:12.225Z,3996.00
2019-06-10T13:06:12.916Z,3992.00
2019-06-10T13:07:12.599Z,3996.00
2019-06-10T13:08:13.224Z,4172.00
2019-06-10T13:09:12.917Z,4408.00
2019-06-10T13:10:12.131Z,4408.00
2019-06-10T13:11:13.284Z,4280.00
2019-06-10T13:12:13.000Z,4024.00
2019-06-10T13:13:10.902Z,3704.00
2019-06-10T13:14:12.969Z,3472.00
2019-06-10T13:15:10.869Z,3404.00
2019-06-10T13:16:14.284Z,3252.00
2019-06-10T13:17:12.933Z,2872.00
2019-06-10T13:18:18.409Z,2724.00
2019-06-10T13:19:12.600Z,2588.00
2019-06-10T13:20:13.638Z,2332.00
2019-06-10T13:21:14.765Z,2132.00
2019-06-10T13:22:12.523Z,2020.00
2019-06-10T13:23:21.650Z,1948.00
2019-06-10T13:24:13.768Z,1796.00
2019-06-10T13:25:13.367Z,1664.00
2019-06-10T13:26:15.803Z,1592.00
2019-06-10T13:27:11.741Z,1536.00
2019-06-10T13:28:10.729Z,1472.00
2019-06-10T13:29:14.295Z,1284.00
2019-06-10T13:30:11.705Z,1108.00
2019-06-10T13:31:10.694Z,1068.00
2019-06-10T13:32:10.894Z,1072.00
2019-06-10T13:33:13.954Z,1148.00
2019-06-10T13:34:13.763Z,1304.00
2019-06-10T13:35:12.442Z,1580.00
2019-06-10T13:36:10.666Z,1960.00
2019-06-10T13:37:12.612Z,2336.00
2019-06-10T13:38:11.618Z,2784.00
2019-06-10T13:39:12.974Z,3308.00
2019-06-10T13:40:12.940Z,3664.00
2019-06-10T13:41:10.590Z,3844.00
2019-06-10T13:42:13.312Z,3652.00
2019-06-10T13:43:12.456Z,3452.00
2019-06-10T13:44:15.374Z,3496.00
2019-06-10T13:45:11.655Z,3772.00
2019-06-10T13:46:11.047Z,4172.00
2019-06-10T13:47:14.627Z,4264.00
2019-06-10T13:48:12.488Z,4588.00
2019-06-10T13:49:12.449Z,4848.00
2019-06-10T13:50:11.945Z,4972.00
2019-06-10T13:51:13.122Z,5120.00
2019-06-10T13:52:15.961Z,5244.00
2019-06-10T13:53:13.411Z,5276.00
2019-06-10T13:54:11.558Z,5172.00
2019-06-10T13:55:13.028Z,5116.00
2019-06-10T13:56:32.086Z,5116.00
2019-06-10T13:57:13.664Z,4968.00
2019-06-10T13:58:11.673Z,4880.00
2019-06-10T13:59:11.726Z,4832.00
2019-06-10T14:00:12.367Z,4932.00
2019-06-10T14:01:20.769Z,5056.00
2019-06-10T14:02:11.940Z,4880.00
2019-06-10T14:03:15.837Z,4820.00
2019-06-10T14:04:20.471Z,4836.00
2019-06-10T14:05:17.882Z,4684.00
2019-06-10T14:06:32.325Z,4668.00
2019-06-10T14:07:16.920Z,4656.00
2019-06-10T14:08:15.053Z,4836.00
2019-06-10T14:09:16.017Z,4824.00
2019-06-10T14:10:17.702Z,4808.00
2019-06-10T14:11:13.442Z,4704.00
2019-06-10T14:12:16.620Z,4492.00
2019-06-10T14:13:15.218Z,4356.00
2019-06-10T14:14:11.560Z,4412.00
2019-06-10T14:15:12.173Z,4480.00
2019-06-10T14:16:14.000Z,4580.00
2019-06-10T14:17:15.917Z,4756.00
2019-06-10T14:18:15.019Z,4780.00
2019-06-10T14:19:12.594Z,4960.00
2019-06-10T14:20:15.301Z,5180.00
2019-06-10T14:21:16.650Z,5300.00
2019-06-10T14:22:15.184Z,5448.00
2019-06-10T14:23:10.207Z,5452.00
2019-06-10T14:24:11.089Z,5216.00
2019-06-10T14:25:11.416Z,5028.00
2019-06-10T14:26:12.614Z,4880.00
2019-06-10T14:27:15.555Z,4684.00
2019-06-10T14:28:19.684Z,4536.00
2019-06-10T14:29:14.284Z,4440.00
2019-06-10T14:30:13.541Z,4376.00
2019-06-10T14:31:35.485Z,4308.00
2019-06-10T14:32:11.894Z,4276.00
2019-06-10T14:33:10.011Z,4216.00
2019-06-10T14:34:13.988Z,4160.00
2019-06-10T14:35:15.504Z,4104.00
2019-06-10T14:36:15.114Z,4004.00
2019-06-10T14:37:12.796Z,3892.00
2019-06-10T14:38:10.718Z,3796.00
2019-06-10T14:39:10.744Z,3704.00
2019-06-10T14:40:13.208Z,3612.00
2019-06-10T14:41:10.104Z,3528.00
2019-06-10T14:42:11.059Z,3488.00
2019-06-10T14:43:10.366Z,3476.00
2019-06-10T14:44:11.475Z,3476.00
2019-06-10T14:45:11.366Z,3500.00
2019-06-10T14:46:13.549Z,3484.00
2019-06-10T14:47:13.532Z,3488.00
2019-06-10T14:48:11.504Z,3528.00
2019-06-10T14:49:11.469Z,3580.00
2019-06-10T14:50:11.509Z,3580.00
2019-06-10T14:51:12.408Z,3532.00
2019-06-10T14:52:13.572Z,3484.00
2019-06-10T14:53:11.090Z,3448.00
2019-06-10T14:54:09.777Z,3444.00
2019-06-10T14:55:11.248Z,3468.00
2019-06-10T14:56:13.179Z,3500.00
2019-06-10T14:57:13.569Z,3536.00
2019-06-10T14:58:13.182Z,3532.00
2019-06-10T14:59:14.069Z,3508.00
2019-06-10T15:00:09.867Z,3512.00
2019-06-10T15:01:12.141Z,3520.00
2019-06-10T15:02:12.845Z,3512.00
2019-06-10T15:03:11.137Z,3508.00
2019-06-10T15:04:10.090Z,3548.00
2019-06-10T15:05:11.139Z,3636.00
2019-06-10T15:06:09.641Z,3684.00
2019-06-10T15:07:09.630Z,3740.00
2019-06-10T15:08:12.461Z,3820.00
2019-06-10T15:09:09.610Z,3884.00
2019-06-10T15:10:09.726Z,3888.00
2019-06-10T15:11:09.729Z,3864.00
2019-06-10T15:12:09.729Z,3812.00
2019-06-10T15:13:09.754Z,3728.00
2019-06-10T15:14:09.811Z,3568.00
2019-06-10T15:15:10.251Z,3380.00
2019-06-10T15:16:10.171Z,3232.00
2019-06-10T15:17:10.621Z,3112.00
2019-06-10T15:18:09.510Z,3088.00
2019-06-10T15:19:17.621Z,3112.00
2019-06-10T15:20:11.657Z,3212.00
2019-06-10T15:21:10.844Z,3332.00
2019-06-10T15:22:12.171Z,3416.00
2019-06-10T15:23:11.514Z,3400.00
2019-06-10T15:24:09.920Z,3292.00
2019-06-10T15:25:10.848Z,3176.00
2019-06-10T15:26:10.002Z,3112.00
2019-06-10T15:27:15.888Z,3140.00
2019-06-10T15:28:13.192Z,3252.00
2019-06-10T15:29:09.508Z,3444.00
2019-06-10T15:30:14.789Z,3696.00
2019-06-10T15:31:13.051Z,4020.00
2019-06-10T15:32:19.150Z,4252.00
2019-06-10T15:33:11.185Z,4308.00
2019-06-10T15:34:11.219Z,4208.00
2019-06-10T15:35:10.724Z,4096.00
2019-06-10T15:36:09.334Z,4064.00
2019-06-10T15:37:10.962Z,4064.00
2019-06-10T15:38:09.292Z,3928.00
2019-06-10T15:39:09.279Z,3716.00
2019-06-10T15:40:09.278Z,3480.00
2019-06-10T15:41:09.397Z,3276.00
2019-06-10T15:42:09.485Z,3100.00
2019-06-10T15:43:09.627Z,3008.00
2019-06-10T15:44:09.702Z,3016.00
2019-06-10T15:45:09.826Z,2936.00
2019-06-10T15:46:09.904Z,2864.00
2019-06-10T15:47:10.697Z,2716.00
2019-06-10T15:48:10.194Z,2744.00
2019-06-10T15:49:10.471Z,3084.00
2019-06-10T15:50:10.771Z,2860.00
2019-06-10T15:51:10.451Z,2788.00
2019-06-10T15:52:10.950Z,2672.00
2019-06-10T15:53:10.498Z,2392.00
2019-06-10T15:54:09.138Z,2032.00
2019-06-10T15:55:09.180Z,1808.00
2019-06-10T15:56:18.225Z,1808.00
2019-06-10T15:57:28.524Z,1796.00
2019-06-10T15:58:12.493Z,1740.00
2019-06-10T15:59:09.060Z,1700.00
2019-06-10T16:00:14.179Z,1740.00
2019-06-10T16:01:14.581Z,1736.00
2019-06-10T16:02:11.176Z,1668.00
2019-06-10T16:03:09.037Z,1688.00
2019-06-10T16:04:09.035Z,1760.00
2019-06-10T16:05:08.995Z,1864.00
2019-06-10T16:06:08.996Z,1964.00
2019-06-10T16:07:08.972Z,2080.00
2019-06-10T16:08:08.961Z,2208.00
2019-06-10T16:09:08.951Z,2368.00
2019-06-10T16:10:08.939Z,2544.00
2019-06-10T16:11:08.941Z,2568.00
2019-06-10T16:12:08.918Z,2484.00
2019-06-10T16:13:08.907Z,2248.00
2019-06-10T16:14:08.897Z,2036.00
2019-06-10T16:15:08.886Z,1888.00
2019-06-10T16:16:08.883Z,1808.00
2019-06-10T16:17:08.872Z,1872.00
2019-06-10T16:18:08.853Z,2048.00
2019-06-10T16:19:08.840Z,2064.00
2019-06-10T16:20:08.839Z,2304.00
2019-06-10T16:21:08.830Z,2632.00
2019-06-10T16:22:08.812Z,2640.00
2019-06-10T16:23:08.795Z,2868.00
2019-06-10T16:24:08.788Z,2704.00
2019-06-10T16:25:08.773Z,2428.00
2019-06-10T16:26:08.776Z,2484.00
2019-06-10T16:27:08.752Z,2560.00
2019-06-10T16:28:08.742Z,2612.00
2019-06-10T16:29:08.730Z,2820.00
2019-06-10T16:30:08.719Z,2984.00
2019-06-10T16:31:08.717Z,3080.00
2019-06-10T16:32:08.699Z,3088.00
2019-06-10T16:33:08.687Z,2960.00
2019-06-10T16:34:08.674Z,2824.00
2019-06-10T16:35:08.663Z,2712.00
2019-06-10T16:36:08.662Z,2596.00
2019-06-10T16:37:08.641Z,2692.00
2019-06-10T16:38:08.651Z,3048.00
2019-06-10T16:39:08.621Z,3180.00
2019-06-10T16:40:08.609Z,3136.00
2019-06-10T16:41:08.611Z,3068.00
2019-06-10T16:42:08.588Z,2888.00
2019-06-10T16:43:08.575Z,2796.00
2019-06-10T16:44:08.569Z,2836.00
2019-06-10T16:45:08.560Z,2696.00
2019-06-10T16:46:08.556Z,2480.00
2019-06-10T16:47:08.546Z,2304.00
2019-06-10T16:48:08.521Z,2196.00
2019-06-10T16:49:08.513Z,2080.00
2019-06-10T16:50:08.505Z,1984.00
2019-06-10T16:51:08.503Z,2032.00
2019-06-10T16:52:08.480Z,2092.00
2019-06-10T16:53:08.475Z,2180.00
2019-06-10T16:54:08.460Z,2212.00
2019-06-10T16:55:08.455Z,2152.00
2019-06-10T16:56:08.545Z,2088.00
2019-06-10T16:57:08.429Z,2076.00
2019-06-10T16:58:08.601Z,2068.00
2019-06-10T16:59:08.403Z,2168.00
2019-06-10T17:00:11.991Z,2172.00
2019-06-10T17:01:09.402Z,2216.00
2019-06-10T17:02:08.369Z,2176.00
2019-06-10T17:03:08.359Z,2092.00
2019-06-10T17:04:08.352Z,2008.00
2019-06-10T17:05:08.340Z,1832.00
2019-06-10T17:06:08.328Z,1744.00
2019-06-10T17:07:08.329Z,1604.00
2019-06-10T17:08:08.306Z,1516.00
2019-06-10T17:09:08.296Z,1288.00
2019-06-10T17:10:08.287Z,1220.00
2019-06-10T17:11:08.273Z,1196.00
2019-06-10T17:12:08.274Z,1140.00
2019-06-10T17:13:08.255Z,1084.00
2019-06-10T17:14:08.243Z,1052.00
2019-06-10T17:15:08.230Z,1032.00
2019-06-10T17:16:08.220Z,952.00
2019-06-10T17:17:08.217Z,952.00
2019-06-10T17:18:08.204Z,1028.00
2019-06-10T17:19:08.190Z,1076.00
2019-06-10T17:20:08.179Z,1092.00
2019-06-10T17:21:08.166Z,1160.00
2019-06-10T17:22:08.162Z,1228.00
2019-06-10T17:23:08.144Z,1332.00
2019-06-10T17:24:08.135Z,1420.00
2019-06-10T17:25:08.124Z,1360.00
2019-06-10T17:26:08.134Z,1300.00
2019-06-10T17:27:08.110Z,1248.00
2019-06-10T17:28:18.298Z,1184.00
2019-06-10T17:29:09.080Z,1144.00
2019-06-10T17:30:08.068Z,1108.00
2019-06-10T17:31:08.065Z,1068.00
2019-06-10T17:32:08.055Z,1040.00
2019-06-10T17:33:08.037Z,1072.00
2019-06-10T17:34:08.574Z,1128.00
2019-06-10T17:35:08.015Z,1160.00
2019-06-10T17:36:08.006Z,1212.00
2019-06-10T17:37:08.004Z,1204.00
2019-06-10T17:38:07.981Z,1144.00
2019-06-10T17:39:07.970Z,1120.00
2019-06-10T17:40:07.960Z,1120.00
2019-06-10T17:41:07.947Z,1152.00
2019-06-10T17:42:07.946Z,1160.00
2019-06-10T17:43:07.925Z,1068.00
2019-06-10T17:44:07.916Z,940.00
2019-06-10T17:45:07.912Z,848.00
2019-06-10T17:46:07.932Z,876.00
2019-06-10T17:47:07.895Z,968.00
2019-06-10T17:48:07.875Z,1100.00
2019-06-10T17:49:07.860Z,1220.00
2019-06-10T17:50:07.847Z,1240.00
2019-06-10T17:51:07.836Z,1176.00
2019-06-10T17:52:07.837Z,1196.00
2019-06-10T17:53:07.813Z,1104.00
2019-06-10T17:54:07.803Z,1076.00
2019-06-10T17:55:07.794Z,1060.00
2019-06-10T17:56:07.781Z,1012.00